createdAt,value
2019-01-27T00:00:43.307Z,23.90
2019-01-27T00:03:09.838Z,23.53
2019-01-27T00:05:36.372Z,23.10
2019-01-27T00:08:02.906Z,23.50
2019-01-27T00:10:29.750Z,24.27
2019-01-27T00:12:56.592Z,23.30
2019-01-27T00:15:23.128Z,23.17
2019-01-27T00:17:49.662Z,23.43
2019-01-27T00:20:16.501Z,24.17
2019-01-27T00:22:43.037Z,23.60
2019-01-27T00:25:10.191Z,23.63
2019-01-27T00:27:37.027Z,24.70
2019-01-27T00:30:03.562Z,24.10
2019-01-27T00:32:30.095Z,24.27
2019-01-27T00:34:56.615Z,24.10
2019-01-27T00:37:23.470Z,24.03
2019-01-27T00:39:50.007Z,23.97
2019-01-27T00:42:16.541Z,25.70
2019-01-27T00:44:43.076Z,24.20
2019-01-27T00:47:09.609Z,24.00
2019-01-27T00:49:36.451Z,24.33
2019-01-27T00:52:02.988Z,23.37
2019-01-27T00:54:29.520Z,24.97
2019-01-27T00:56:56.365Z,24.63
2019-01-27T00:59:23.205Z,24.73
2019-01-27T01:01:50.046Z,23.37
2019-01-27T01:04:16.579Z,24.80
2019-01-27T01:06:43.115Z,24.93
2019-01-27T01:09:09.650Z,24.67
2019-01-27T01:11:36.183Z,24.43
2019-01-27T01:14:03.331Z,25.57
2019-01-27T01:16:29.865Z,24.60
2019-01-27T01:18:56.708Z,24.40
2019-01-27T01:21:23.550Z,23.73
2019-01-27T01:23:50.087Z,24.97
2019-01-27T01:26:16.928Z,25.03
2019-01-27T01:28:43.768Z,23.93
2019-01-27T01:31:10.307Z,24.27
2019-01-27T01:33:37.145Z,25.13
2019-01-27T01:36:03.985Z,25.87
2019-01-27T01:38:30.827Z,24.03
2019-01-27T01:40:57.363Z,24.77
2019-01-27T01:43:24.204Z,24.93
2019-01-27T01:45:50.738Z,25.10
2019-01-27T01:48:17.272Z,26.43
2019-01-27T01:50:44.119Z,24.97
2019-01-27T01:53:10.683Z,25.93
2019-01-27T01:55:37.491Z,24.13
2019-01-27T01:58:04.026Z,25.53
2019-01-27T02:00:30.866Z,25.73
2019-01-27T02:02:57.712Z,25.37
2019-01-27T02:05:24.246Z,26.20
2019-01-27T02:07:51.087Z,26.83
2019-01-27T02:10:17.619Z,25.27
2019-01-27T02:12:44.153Z,24.93
2019-01-27T02:15:10.995Z,25.23
2019-01-27T02:17:37.528Z,25.73
2019-01-27T02:20:04.372Z,25.13
2019-01-27T02:22:30.911Z,24.97
2019-01-27T02:24:57.450Z,25.30
2019-01-27T02:27:24.284Z,25.30
2019-01-27T02:29:50.816Z,25.77
2019-01-27T02:32:17.351Z,26.00
2019-01-27T02:34:43.887Z,26.03
2019-01-27T02:37:10.424Z,24.77
2019-01-27T02:39:37.262Z,26.17
2019-01-27T02:42:03.798Z,25.30
2019-01-27T02:44:30.331Z,25.23
2019-01-27T02:46:56.867Z,25.33
2019-01-27T02:49:23.401Z,24.43
2019-01-27T02:51:50.535Z,24.63
2019-01-27T02:54:17.391Z,24.17
2019-01-27T02:56:43.926Z,24.77
2019-01-27T02:59:10.465Z,24.83
2019-01-27T03:01:36.999Z,25.13
2019-01-27T03:04:03.836Z,23.67
2019-01-27T03:06:30.369Z,25.10
2019-01-27T03:08:57.212Z,25.40
2019-01-27T03:11:24.054Z,25.37
2019-01-27T03:13:50.895Z,24.10
2019-01-27T03:16:17.735Z,25.57
2019-01-27T03:18:44.579Z,24.43
2019-01-27T03:21:11.420Z,24.43
2019-01-27T03:23:37.954Z,24.27
2019-01-27T03:26:04.492Z,25.50
2019-01-27T03:28:31.638Z,24.10
2019-01-27T03:30:58.172Z,23.80
2019-01-27T03:33:24.723Z,24.07
2019-01-27T03:35:51.549Z,23.63
2019-01-27T03:38:18.083Z,24.17
2019-01-27T03:40:44.926Z,24.53
2019-01-27T03:43:11.460Z,24.30
2019-01-27T03:45:37.995Z,23.00
2019-01-27T03:48:04.835Z,23.53
2019-01-27T03:50:31.376Z,23.07
2019-01-27T03:52:58.210Z,23.23
2019-01-27T03:55:24.747Z,23.17
2019-01-27T03:57:51.283Z,22.47
2019-01-27T04:00:17.823Z,22.20
2019-01-27T04:02:44.360Z,21.90
2019-01-27T04:05:11.191Z,23.03
2019-01-27T04:07:37.727Z,21.93
2019-01-27T04:10:04.262Z,25.10
2019-01-27T04:12:30.778Z,22.43
2019-01-27T04:14:57.640Z,21.67
2019-01-27T04:17:24.785Z,22.00
2019-01-27T04:19:51.421Z,21.07
2019-01-27T04:22:18.164Z,22.27
2019-01-27T04:24:45.005Z,21.83
2019-01-27T04:27:11.845Z,21.70
2019-01-27T04:29:38.686Z,21.57
2019-01-27T04:32:05.221Z,21.77
2019-01-27T04:34:31.759Z,21.67
2019-01-27T04:36:58.293Z,22.43
2019-01-27T04:39:25.135Z,21.30
2019-01-27T04:41:51.676Z,22.10
2019-01-27T04:44:18.201Z,21.43
2019-01-27T04:46:44.737Z,21.23
2019-01-27T04:49:11.271Z,20.40
2019-01-27T04:51:38.112Z,20.80
2019-01-27T04:54:04.955Z,21.27
2019-01-27T04:56:31.489Z,20.70
2019-01-27T04:58:58.026Z,20.63
2019-01-27T05:01:24.863Z,20.10
2019-01-27T05:03:51.399Z,21.20
2019-01-27T05:06:18.242Z,21.23
2019-01-27T05:08:45.083Z,20.23
2019-01-27T05:11:11.924Z,21.80
2019-01-27T05:13:38.462Z,19.97
2019-01-27T05:16:04.994Z,20.93
2019-01-27T05:18:32.141Z,20.10
2019-01-27T05:20:58.680Z,20.47
2019-01-27T05:23:25.210Z,19.37
2019-01-27T05:25:52.053Z,19.93
2019-01-27T05:28:18.896Z,19.67
2019-01-27T05:30:45.735Z,20.10
2019-01-27T05:33:12.576Z,19.90
2019-01-27T05:35:39.116Z,20.17
2019-01-27T05:38:05.955Z,19.20
2019-01-27T05:40:32.797Z,19.07
2019-01-27T05:42:59.637Z,18.33
2019-01-27T05:45:26.479Z,20.30
2019-01-27T05:47:53.323Z,19.87
2019-01-27T05:50:19.858Z,19.07
2019-01-27T05:52:46.697Z,20.13
2019-01-27T05:55:13.538Z,19.27
2019-01-27T05:57:40.077Z,18.90
2019-01-27T06:00:06.916Z,19.27
2019-01-27T06:02:33.449Z,18.67
2019-01-27T06:04:59.983Z,18.77
2019-01-27T06:07:26.825Z,18.73
2019-01-27T06:09:53.665Z,19.53
2019-01-27T06:12:20.508Z,17.67
2019-01-27T06:14:47.046Z,18.07
2019-01-27T06:17:13.581Z,18.53
2019-01-27T06:19:40.418Z,17.77
2019-01-27T06:22:06.953Z,17.30
2019-01-27T06:24:33.489Z,18.57
2019-01-27T06:27:00.332Z,17.13
2019-01-27T06:29:27.172Z,17.93
2019-01-27T06:31:54.012Z,17.80
2019-01-27T06:34:20.550Z,18.63
2019-01-27T06:36:47.083Z,18.07
2019-01-27T06:39:13.617Z,18.17
2019-01-27T06:41:40.152Z,18.10
2019-01-27T06:44:06.992Z,17.20
2019-01-27T06:46:33.836Z,17.60
2019-01-27T06:49:00.369Z,17.20
2019-01-27T06:51:27.211Z,16.60
2019-01-27T06:53:54.052Z,16.93
2019-01-27T06:56:20.896Z,17.63
2019-01-27T06:58:47.429Z,17.10
2019-01-27T07:01:14.271Z,17.23
2019-01-27T07:03:40.805Z,17.80
2019-01-27T07:06:07.339Z,17.57
2019-01-27T07:08:34.181Z,16.30
2019-01-27T07:11:00.716Z,16.93
2019-01-27T07:13:27.250Z,16.47
2019-01-27T07:15:53.784Z,16.37
2019-01-27T07:18:20.326Z,16.47
2019-01-27T07:20:47.164Z,16.03
2019-01-27T07:23:13.698Z,15.67
2019-01-27T07:25:40.537Z,16.73
2019-01-27T07:28:07.378Z,15.13
2019-01-27T07:30:34.219Z,15.07
2019-01-27T07:33:01.063Z,16.93
2019-01-27T07:35:27.599Z,14.60
2019-01-27T07:37:54.132Z,15.03
2019-01-27T07:40:20.668Z,15.43
2019-01-27T07:42:47.507Z,15.83
2019-01-27T07:45:14.349Z,14.90
2019-01-27T07:47:40.886Z,15.80
2019-01-27T07:50:07.725Z,15.93
2019-01-27T07:52:34.265Z,14.83
2019-01-27T07:55:01.102Z,15.03
2019-01-27T07:57:27.942Z,14.47
2019-01-27T07:59:54.786Z,15.03
2019-01-27T08:02:21.319Z,15.20
2019-01-27T08:04:47.858Z,14.67
2019-01-27T08:07:14.396Z,14.83
2019-01-27T08:09:41.230Z,14.23
2019-01-27T08:12:08.072Z,14.17
2019-01-27T08:14:34.609Z,15.10
2019-01-27T08:17:01.142Z,13.73
2019-01-27T08:19:27.676Z,13.40
2019-01-27T08:21:54.516Z,13.53
2019-01-27T08:24:21.052Z,12.97
2019-01-27T08:26:47.894Z,14.37
2019-01-27T08:29:14.427Z,13.77
2019-01-27T08:31:41.270Z,13.30
2019-01-27T08:34:08.110Z,13.27
2019-01-27T08:36:34.648Z,13.77
2019-01-27T08:39:01.488Z,13.07
2019-01-27T08:41:28.021Z,13.27
2019-01-27T08:43:54.863Z,13.43
2019-01-27T08:46:21.398Z,13.00
2019-01-27T08:48:48.243Z,13.73
2019-01-27T08:51:15.083Z,14.20
2019-01-27T08:53:41.924Z,12.67
2019-01-27T08:56:08.457Z,12.83
2019-01-27T08:58:35.301Z,13.70
2019-01-27T09:01:01.836Z,13.43
2019-01-27T09:03:28.369Z,14.70
2019-01-27T09:05:54.905Z,13.67
2019-01-27T09:08:21.744Z,13.07
2019-01-27T09:10:48.878Z,12.47
2019-01-27T09:13:15.429Z,12.83
2019-01-27T09:15:41.961Z,12.37
2019-01-27T09:18:08.804Z,12.90
2019-01-27T09:20:35.340Z,13.03
2019-01-27T09:23:02.180Z,12.53
2019-01-27T09:25:28.719Z,12.90
2019-01-27T09:27:55.556Z,13.50
2019-01-27T09:30:22.396Z,12.67
2019-01-27T09:32:49.238Z,12.63
2019-01-27T09:35:15.773Z,12.40
2019-01-27T09:37:42.307Z,12.40
2019-01-27T09:40:09.149Z,12.50
2019-01-27T09:42:35.683Z,12.07
2019-01-27T09:45:02.527Z,11.17
2019-01-27T09:47:29.368Z,11.97
2019-01-27T09:49:55.904Z,10.87
2019-01-27T09:52:22.746Z,11.10
2019-01-27T09:54:49.586Z,11.43
2019-01-27T09:57:16.121Z,11.13
2019-01-27T09:59:42.964Z,11.80
2019-01-27T10:02:09.496Z,11.87
2019-01-27T10:04:36.030Z,11.23
2019-01-27T10:07:02.877Z,11.03
2019-01-27T10:09:29.409Z,11.50
2019-01-27T10:11:56.248Z,11.37
2019-01-27T10:14:23.090Z,11.83
2019-01-27T10:16:49.626Z,10.23
2019-01-27T10:19:16.162Z,10.93
2019-01-27T10:21:43.001Z,11.03
2019-01-27T10:24:09.842Z,10.00
2019-01-27T10:26:36.380Z,9.93
2019-01-27T10:29:02.911Z,9.67
2019-01-27T10:31:29.754Z,11.07
2019-01-27T10:33:56.287Z,10.13
2019-01-27T10:36:23.129Z,10.80
2019-01-27T10:38:49.646Z,9.70
2019-01-27T10:41:16.507Z,10.20
2019-01-27T10:43:43.041Z,9.80
2019-01-27T10:46:09.583Z,10.07
2019-01-27T10:48:36.416Z,9.73
2019-01-27T10:51:02.933Z,9.60
2019-01-27T10:53:34.837Z,9.87
2019-01-27T10:55:57.867Z,10.67
2019-01-27T10:58:24.704Z,9.00
2019-01-27T11:00:51.545Z,10.00
2019-01-27T11:03:18.387Z,9.23
2019-01-27T11:05:44.929Z,9.20
2019-01-27T11:08:11.532Z,9.43
2019-01-27T11:10:38.300Z,10.03
2019-01-27T11:13:05.142Z,9.43
2019-01-27T11:15:33.385Z,8.90
2019-01-27T11:18:00.054Z,9.10
2019-01-27T11:20:26.896Z,8.50
2019-01-27T11:22:53.740Z,9.10
2019-01-27T11:25:20.576Z,9.10
2019-01-27T11:27:47.113Z,8.63
2019-01-27T11:30:13.650Z,9.00
2019-01-27T11:32:40.490Z,8.20
2019-01-27T11:35:07.024Z,8.57
2019-01-27T11:37:33.865Z,8.63
2019-01-27T11:40:00.458Z,8.43
2019-01-27T11:42:27.241Z,7.87
2019-01-27T11:44:53.775Z,8.40
2019-01-27T11:47:20.309Z,8.33
2019-01-27T11:49:47.152Z,8.57
2019-01-27T11:52:15.640Z,8.77
2019-01-27T11:54:42.066Z,8.47
2019-01-27T11:57:08.601Z,8.60
2019-01-27T11:59:35.131Z,8.07
2019-01-27T12:02:01.759Z,7.93
2019-01-27T12:04:28.507Z,8.43
2019-01-27T12:06:55.041Z,7.93
2019-01-27T12:09:21.883Z,7.17
2019-01-27T12:11:48.418Z,8.67
2019-01-27T12:14:15.263Z,7.80
2019-01-27T12:16:43.022Z,8.07
2019-01-27T12:19:09.589Z,7.00
2019-01-27T12:21:36.400Z,7.33
2019-01-27T12:24:02.932Z,7.43
2019-01-27T12:26:29.775Z,7.10
2019-01-27T12:28:56.313Z,7.60
2019-01-27T12:31:23.150Z,7.17
2019-01-27T12:33:49.689Z,7.57
2019-01-27T12:36:16.223Z,7.00
2019-01-27T12:38:43.071Z,6.77
2019-01-27T12:41:09.608Z,7.17
2019-01-27T12:43:36.132Z,6.83
2019-01-27T12:46:02.974Z,6.47
2019-01-27T12:48:29.511Z,6.53
2019-01-27T12:50:56.353Z,6.83
2019-01-27T12:53:22.887Z,6.70
2019-01-27T12:55:49.426Z,6.63
2019-01-27T12:58:16.259Z,6.63
2019-01-27T13:00:42.794Z,6.03
2019-01-27T13:03:09.667Z,6.77
2019-01-27T13:05:36.170Z,6.27
2019-01-27T13:08:03.011Z,6.23
2019-01-27T13:10:29.553Z,6.33
2019-01-27T13:12:56.081Z,6.47
2019-01-27T13:15:22.922Z,6.37
2019-01-27T13:17:49.764Z,5.93
2019-01-27T13:20:16.607Z,6.67
2019-01-27T13:22:43.139Z,6.10
2019-01-27T13:25:09.674Z,5.97
2019-01-27T13:27:36.517Z,6.60
2019-01-27T13:30:03.050Z,6.20
2019-01-27T13:32:29.892Z,6.07
2019-01-27T13:34:56.427Z,6.07
2019-01-27T13:37:22.962Z,5.80
2019-01-27T13:39:49.905Z,5.70
2019-01-27T13:42:16.646Z,6.03
2019-01-27T13:44:43.180Z,5.80
2019-01-27T13:47:10.021Z,5.53
2019-01-27T13:49:36.863Z,5.53
2019-01-27T13:52:03.703Z,5.63
2019-01-27T13:54:30.240Z,5.60
2019-01-27T13:56:57.079Z,5.20
2019-01-27T13:59:23.619Z,6.60
2019-01-27T14:01:50.149Z,5.93
2019-01-27T14:04:16.991Z,5.67
2019-01-27T14:06:43.833Z,5.27
2019-01-27T14:09:10.366Z,6.03
2019-01-27T14:11:36.905Z,5.60
2019-01-27T14:14:03.436Z,6.00
2019-01-27T14:16:30.051Z,5.83
2019-01-27T14:18:57.363Z,5.30
2019-01-27T14:21:23.962Z,6.20
2019-01-27T14:23:50.802Z,6.00
2019-01-27T14:26:17.646Z,5.83
2019-01-27T14:28:44.486Z,6.30
2019-01-27T14:31:11.329Z,5.73
2019-01-27T14:33:37.862Z,6.17
2019-01-27T14:36:04.706Z,6.10
2019-01-27T14:38:31.238Z,6.00
2019-01-27T14:40:57.867Z,6.40
2019-01-27T14:43:24.615Z,6.27
2019-01-27T14:45:51.155Z,6.40
2019-01-27T14:48:17.690Z,7.17
2019-01-27T14:50:44.218Z,6.03
2019-01-27T14:53:11.060Z,6.73
2019-01-27T14:55:37.594Z,6.90
2019-01-27T14:58:04.129Z,6.37
2019-01-27T15:00:30.663Z,6.37
2019-01-27T15:02:58.274Z,6.57
2019-01-27T15:05:24.959Z,7.10
2019-01-27T15:07:51.495Z,6.93
2019-01-27T15:10:18.033Z,6.53
2019-01-27T15:12:44.567Z,7.00
2019-01-27T15:15:11.406Z,6.73
2019-01-27T15:17:38.253Z,7.33
2019-01-27T15:20:04.785Z,7.53
2019-01-27T15:22:31.318Z,7.47
2019-01-27T15:24:57.854Z,7.17
2019-01-27T15:27:24.692Z,7.20
2019-01-27T15:29:51.576Z,7.17
2019-01-27T15:32:18.379Z,7.70
2019-01-27T15:34:44.910Z,7.30
2019-01-27T15:37:11.444Z,7.50
2019-01-27T15:39:37.985Z,7.80
2019-01-27T15:42:04.823Z,7.40
2019-01-27T15:44:31.358Z,7.47
2019-01-27T15:46:57.892Z,7.73
2019-01-27T15:49:24.738Z,7.97
2019-01-27T15:51:51.574Z,7.60
2019-01-27T15:54:18.424Z,7.33
2019-01-27T15:56:44.953Z,7.50
2019-01-27T15:59:11.793Z,7.83
2019-01-27T16:01:38.327Z,7.50
2019-01-27T16:04:05.170Z,8.43
2019-01-27T16:06:32.010Z,7.90
2019-01-27T16:08:58.543Z,7.93
2019-01-27T16:11:25.077Z,8.03
2019-01-27T16:13:51.921Z,7.17
2019-01-27T16:16:18.456Z,8.27
2019-01-27T16:18:45.295Z,7.80
2019-01-27T16:21:11.830Z,7.57
2019-01-27T16:23:38.367Z,8.23
2019-01-27T16:26:05.206Z,8.30
2019-01-27T16:28:31.743Z,8.17
2019-01-27T16:30:58.367Z,8.40
2019-01-27T16:33:25.116Z,8.60
2019-01-27T16:35:51.654Z,8.70
2019-01-27T16:38:18.493Z,8.67
2019-01-27T16:40:45.028Z,8.80
2019-01-27T16:43:11.876Z,9.07
2019-01-27T16:45:38.407Z,8.47
2019-01-27T16:48:04.938Z,8.27
2019-01-27T16:50:31.474Z,8.97
2019-01-27T16:52:57.994Z,9.07
2019-01-27T16:55:24.849Z,9.10
2019-01-27T16:57:51.384Z,9.00
2019-01-27T17:00:17.919Z,8.73
2019-01-27T17:02:44.758Z,8.30
2019-01-27T17:05:11.292Z,8.77
2019-01-27T17:07:38.137Z,9.20
2019-01-27T17:10:04.670Z,8.67
2019-01-27T17:12:31.513Z,8.67
2019-01-27T17:14:58.353Z,9.40
2019-01-27T17:17:24.887Z,9.10
2019-01-27T17:19:51.730Z,8.93
2019-01-27T17:22:18.268Z,8.67
2019-01-27T17:24:45.105Z,8.67
2019-01-27T17:27:11.641Z,8.57
2019-01-27T17:29:38.176Z,9.13
2019-01-27T17:32:05.018Z,8.33
2019-01-27T17:34:31.551Z,8.80
2019-01-27T17:36:58.398Z,8.73
2019-01-27T17:39:26.530Z,9.37
2019-01-27T17:41:53.307Z,8.87
2019-01-27T17:44:20.150Z,9.37
2019-01-27T17:46:46.987Z,8.47
2019-01-27T17:49:13.830Z,9.03
2019-01-27T17:51:40.678Z,9.87
2019-01-27T17:54:07.209Z,9.10
2019-01-27T17:56:34.046Z,8.53
2019-01-27T17:59:00.581Z,9.17
2019-01-27T18:01:27.425Z,8.47
2019-01-27T18:03:53.959Z,9.33
2019-01-27T18:06:20.887Z,9.73
2019-01-27T18:08:47.641Z,8.73
2019-01-27T18:11:14.486Z,9.30
2019-01-27T18:13:41.051Z,9.47
2019-01-27T18:16:07.559Z,9.20
2019-01-27T18:18:34.091Z,9.23
2019-01-27T18:21:00.934Z,9.73
2019-01-27T18:23:27.467Z,9.17
2019-01-27T18:25:54.024Z,8.90
2019-01-27T18:28:20.742Z,8.63
2019-01-27T18:30:47.382Z,8.83
2019-01-27T18:33:14.225Z,9.57
2019-01-27T18:35:41.067Z,9.73
2019-01-27T18:38:07.912Z,8.97
2019-01-27T18:40:41.601Z,9.73
2019-01-27T18:43:08.340Z,9.40
2019-01-27T18:45:35.206Z,9.43
2019-01-27T18:48:02.025Z,10.03
2019-01-27T18:50:28.561Z,9.50
2019-01-27T18:52:55.400Z,10.03
2019-01-27T18:55:22.227Z,9.20
2019-01-27T18:57:49.512Z,9.70
2019-01-27T19:00:16.233Z,10.07
2019-01-27T19:02:43.382Z,9.47
2019-01-27T19:05:09.918Z,10.10
2019-01-27T19:07:36.758Z,9.73
2019-01-27T19:10:03.598Z,10.17
2019-01-27T19:12:30.133Z,10.23
2019-01-27T19:14:56.671Z,10.33
2019-01-27T19:17:23.203Z,9.47
2019-01-27T19:19:49.738Z,10.40
2019-01-27T19:22:16.579Z,11.00
2019-01-27T19:24:43.113Z,10.17
2019-01-27T19:27:09.649Z,10.73
2019-01-27T19:29:36.184Z,10.90
2019-01-27T19:32:02.717Z,11.53
2019-01-27T19:34:29.558Z,11.17
2019-01-27T19:36:56.095Z,10.43
2019-01-27T19:39:22.935Z,11.80
2019-01-27T19:41:49.469Z,11.17
2019-01-27T19:44:16.312Z,11.27
2019-01-27T19:46:43.155Z,11.30
2019-01-27T19:49:09.913Z,11.73
2019-01-27T19:51:36.836Z,11.20
2019-01-27T19:54:03.678Z,11.37
2019-01-27T19:56:30.523Z,11.53
2019-01-27T19:58:57.351Z,11.67
2019-01-27T20:01:24.195Z,12.70
2019-01-27T20:03:50.738Z,13.03
2019-01-27T20:06:17.273Z,12.20
2019-01-27T20:08:44.112Z,12.00
2019-01-27T20:11:10.955Z,12.30
2019-01-27T20:13:37.489Z,11.93
2019-01-27T20:16:04.033Z,11.90
2019-01-27T20:18:30.558Z,13.27
2019-01-27T20:20:57.106Z,13.03
2019-01-27T20:23:23.940Z,13.50
2019-01-27T20:25:50.478Z,12.47
2019-01-27T20:28:17.004Z,13.40
2019-01-27T20:30:43.847Z,13.17
2019-01-27T20:33:10.380Z,13.27
2019-01-27T20:35:37.223Z,12.97
2019-01-27T20:38:03.760Z,12.77
2019-01-27T20:40:30.301Z,13.73
2019-01-27T20:42:57.133Z,13.87
2019-01-27T20:45:23.974Z,13.37
2019-01-27T20:47:51.122Z,13.37
2019-01-27T20:50:17.659Z,13.27
2019-01-27T20:52:44.911Z,13.17
2019-01-27T20:55:11.648Z,13.93
2019-01-27T20:57:39.185Z,13.70
2019-01-27T21:00:07.024Z,13.33
2019-01-27T21:02:35.198Z,14.57
2019-01-27T21:05:02.086Z,14.33
2019-01-27T21:07:28.929Z,14.37
2019-01-27T21:09:55.466Z,13.43
2019-01-27T21:12:22.307Z,14.03
2019-01-27T21:14:48.843Z,13.70
2019-01-27T21:17:15.376Z,14.00
2019-01-27T21:19:42.216Z,15.00
2019-01-27T21:22:08.752Z,14.97
2019-01-27T21:24:35.591Z,14.47
2019-01-27T21:27:06.423Z,14.23
2019-01-27T21:29:30.503Z,14.40
2019-01-27T21:31:57.352Z,14.73
2019-01-27T21:34:23.881Z,14.53
2019-01-27T21:36:50.721Z,14.93
2019-01-27T21:39:17.563Z,13.97
2019-01-27T21:41:44.097Z,14.83
2019-01-27T21:44:11.246Z,15.57
2019-01-27T21:46:38.089Z,15.23
2019-01-27T21:49:04.623Z,14.93
2019-01-27T21:51:31.464Z,14.93
2019-01-27T21:53:58.310Z,15.73
2019-01-27T21:56:24.840Z,16.37
2019-01-27T21:58:51.407Z,16.60
2019-01-27T22:01:18.216Z,16.27
2019-01-27T22:03:44.768Z,16.50
2019-01-27T22:06:11.286Z,16.00
2019-01-27T22:08:38.128Z,17.00
2019-01-27T22:11:04.665Z,17.33
2019-01-27T22:13:31.197Z,17.20
2019-01-27T22:15:58.037Z,17.63
2019-01-27T22:18:24.576Z,17.47
2019-01-27T22:20:51.427Z,18.97
2019-01-27T22:23:18.261Z,17.97
2019-01-27T22:25:44.793Z,18.80
2019-01-27T22:28:11.329Z,18.63
2019-01-27T22:30:38.167Z,18.43
2019-01-27T22:33:05.011Z,18.83
2019-01-27T22:35:31.545Z,18.83
2019-01-27T22:37:58.384Z,19.83
2019-01-27T22:40:24.918Z,18.73
2019-01-27T22:42:51.454Z,19.27
2019-01-27T22:45:17.989Z,20.60
2019-01-27T22:47:44.830Z,20.10
2019-01-27T22:50:11.368Z,20.33
2019-01-27T22:52:38.232Z,20.20
2019-01-27T22:55:04.740Z,19.73
2019-01-27T22:57:31.284Z,19.13
2019-01-27T22:59:58.116Z,20.73
2019-01-27T23:02:24.654Z,20.33
2019-01-27T23:04:51.493Z,21.20
2019-01-27T23:07:18.333Z,21.67
2019-01-27T23:09:44.869Z,21.17
2019-01-27T23:12:11.403Z,21.90
2019-01-27T23:14:37.941Z,22.13
2019-01-27T23:17:04.779Z,21.70
2019-01-27T23:19:31.316Z,21.73
2019-01-27T23:21:57.852Z,22.00
2019-01-27T23:24:24.385Z,22.57
2019-01-27T23:26:51.226Z,22.03
2019-01-27T23:29:17.760Z,23.60
2019-01-27T23:31:44.407Z,23.03
2019-01-27T23:34:11.135Z,21.83
2019-01-27T23:36:37.673Z,24.87
2019-01-27T23:39:04.514Z,23.87
2019-01-27T23:41:31.048Z,22.90
2019-01-27T23:43:57.580Z,23.03
2019-01-27T23:46:24.114Z,24.23
2019-01-27T23:48:50.649Z,24.57
2019-01-27T23:51:17.192Z,24.33
2019-01-27T23:53:43.749Z,24.13
2019-01-27T23:56:10.252Z,24.37
2019-01-27T23:58:37.094Z,25.10
